Landis, Canada
Current Conditions -  °F | °C
As of 8:00 AM on Thursday 29 Jan 2015 (Local Time) from CYQW Reporting Station
Overcast Overcast  
Wind Chill: -5°   Ceiling: 1000
Heat Index:   Visibility: 9mi
Dew Point:   Wind: 9mph
Humidity: 85%   Direction: 90°E
Pressure: 30.48"   Gusts: NA
Location:  52.2°N, 108.45°W
Report Text: CYQW 291400Z AUTO 09008KT 9SM OVC010 M13/M15 A3048 RMK SLP367
Loading
Personal Weather Stations






























Interactive Weather Map New forecast layout! Learn more

10-Day Weather Forecast

Advertisements
Track Severe Weather on mobile